createdAt,value
2024-04-30T00:00:20.479Z,101871.51
2024-04-30T00:02:50.379Z,101871.51
2024-04-30T00:05:20.391Z,101871.34
2024-04-30T00:07:50.476Z,101872.82
2024-04-30T00:10:20.248Z,101871.80
2024-04-30T00:12:50.116Z,101871.80
2024-04-30T00:15:19.720Z,101863.87
2024-04-30T00:17:49.662Z,101863.87
2024-04-30T00:20:19.314Z,101858.03
2024-04-30T00:22:49.221Z,101857.90
2024-04-30T00:25:18.821Z,101857.02
2024-04-30T00:27:50.005Z,101854.80
2024-04-30T00:30:21.167Z,101853.73
2024-04-30T00:32:51.926Z,101845.02
2024-04-30T00:35:24.742Z,101848.33
2024-04-30T00:37:54.713Z,101848.70
2024-04-30T00:40:24.692Z,101852.66
2024-04-30T00:42:54.264Z,101854.95
2024-04-30T00:45:24.120Z,101850.63
2024-04-30T00:47:54.296Z,101856.75
2024-04-30T00:50:24.888Z,101863.32
2024-04-30T00:52:55.491Z,101860.64
2024-04-30T00:55:25.408Z,101861.60
2024-04-30T00:57:55.528Z,101849.75
2024-04-30T01:00:25.847Z,101847.80
2024-04-30T01:02:56.286Z,101846.57
2024-04-30T01:05:26.212Z,101849.94
2024-04-30T01:07:56.410Z,101855.79
2024-04-30T01:10:27.124Z,101861.11
2024-04-30T01:12:59.968Z,101862.67
2024-04-30T01:15:29.898Z,101858.23
2024-04-30T01:17:59.855Z,101868.70
2024-04-30T01:20:29.883Z,101862.58
2024-04-30T01:22:59.975Z,101859.27
2024-04-30T01:25:29.698Z,101854.55
2024-04-30T01:27:59.566Z,101853.39
2024-04-30T01:30:29.147Z,101848.08
2024-04-30T01:33:00.614Z,101840.67
2024-04-30T01:35:30.510Z,101848.70
2024-04-30T01:38:00.884Z,101849.78
2024-04-30T01:40:30.653Z,101847.97
2024-04-30T01:43:00.702Z,101856.98
2024-04-30T01:45:30.663Z,101856.23
2024-04-30T01:48:03.160Z,101847.02
2024-04-30T01:50:33.086Z,101841.20
2024-04-30T01:53:03.079Z,101837.92
2024-04-30T01:55:33.265Z,101831.67
2024-04-30T01:58:03.358Z,101831.67
2024-04-30T02:00:33.402Z,101831.66
2024-04-30T02:03:03.393Z,101830.23
2024-04-30T02:05:33.504Z,101828.33
2024-04-30T02:08:03.875Z,101828.64
2024-04-30T02:10:33.854Z,101824.92
2024-04-30T02:13:05.486Z,101835.73
2024-04-30T02:15:35.610Z,101853.80
2024-04-30T02:18:06.958Z,101843.86
2024-04-30T02:20:36.968Z,101845.02
2024-04-30T02:23:06.857Z,101848.50
2024-04-30T02:25:37.823Z,101844.08
2024-04-30T02:28:09.395Z,101848.30
2024-04-30T02:30:56.854Z,101843.86
2024-04-30T02:33:44.455Z,101831.08
2024-04-30T02:36:14.582Z,101825.36
2024-04-30T02:38:44.456Z,101821.45
2024-04-30T02:41:14.567Z,101828.42
2024-04-30T02:43:44.468Z,101827.78
2024-04-30T02:46:14.408Z,101835.19
2024-04-30T02:48:44.214Z,101826.53
2024-04-30T02:51:14.192Z,101816.27
2024-04-30T02:53:44.189Z,101817.20
2024-04-30T02:56:15.089Z,101819.23
2024-04-30T02:58:45.034Z,101818.16
2024-04-30T03:01:15.685Z,101811.73
2024-04-30T03:03:47.466Z,101819.01
2024-04-30T03:06:17.420Z,101811.93
2024-04-30T03:08:47.352Z,101811.93
2024-04-30T03:11:17.271Z,101816.45
2024-04-30T03:13:47.280Z,101812.98
2024-04-30T03:16:17.188Z,101811.17
2024-04-30T03:18:47.381Z,101804.21
2024-04-30T03:21:17.302Z,101808.64
2024-04-30T03:23:47.172Z,101799.78
2024-04-30T03:26:17.032Z,101801.36
2024-04-30T03:28:46.952Z,101800.84
2024-04-30T03:31:18.563Z,101795.55
2024-04-30T03:33:48.412Z,101800.83
2024-04-30T03:36:19.754Z,101797.78
2024-04-30T03:38:49.887Z,101786.99
2024-04-30T03:41:19.806Z,101789.53
2024-04-30T03:43:49.994Z,101792.17
2024-04-30T03:46:19.948Z,101785.06
2024-04-30T03:48:49.861Z,101785.21
2024-04-30T03:51:20.540Z,101772.28
2024-04-30T03:53:50.491Z,101772.94
2024-04-30T03:56:20.146Z,101775.49
2024-04-30T03:58:50.052Z,101779.69
2024-04-30T04:01:20.308Z,101779.69
2024-04-30T04:03:50.239Z,101774.63
2024-04-30T04:06:19.954Z,101764.67
2024-04-30T04:08:49.902Z,101773.98
2024-04-30T04:11:37.567Z,101784.66
2024-04-30T04:14:26.836Z,101785.09
2024-04-30T04:16:56.590Z,101770.41
2024-04-30T04:19:27.395Z,101778.02
2024-04-30T04:21:57.542Z,101789.44
2024-04-30T04:24:27.783Z,101787.61
2024-04-30T04:26:57.417Z,101776.84
2024-04-30T04:29:27.287Z,101773.88
2024-04-30T04:31:58.954Z,101772.60
2024-04-30T04:34:29.071Z,101786.56
2024-04-30T04:36:58.911Z,101799.78
2024-04-30T04:39:28.572Z,101796.68
2024-04-30T04:41:58.489Z,101791.53
2024-04-30T04:44:28.657Z,101787.81
2024-04-30T04:46:58.563Z,101781.56
2024-04-30T04:49:28.695Z,101777.53
2024-04-30T04:51:58.847Z,101771.84
2024-04-30T04:54:28.703Z,101772.31
2024-04-30T04:56:58.606Z,101769.35
2024-04-30T04:59:28.540Z,101766.26
2024-04-30T05:01:58.506Z,101769.45
2024-04-30T05:04:28.807Z,101767.98
2024-04-30T05:07:01.072Z,101769.30
2024-04-30T05:09:30.383Z,101774.81
2024-04-30T05:12:00.268Z,101778.09
2024-04-30T05:14:30.311Z,101788.88
2024-04-30T05:17:00.329Z,101790.03
2024-04-30T05:19:30.548Z,101790.34
2024-04-30T05:22:00.832Z,101773.84
2024-04-30T05:24:30.839Z,101775.88
2024-04-30T05:27:00.798Z,101775.87
2024-04-30T05:29:32.014Z,101774.91
2024-04-30T05:32:02.291Z,101775.02
2024-04-30T05:34:32.328Z,101779.03
2024-04-30T05:37:02.396Z,101779.03
2024-04-30T05:39:32.359Z,101781.78
2024-04-30T05:42:04.020Z,101785.69
2024-04-30T05:44:34.268Z,101772.91
2024-04-30T05:47:04.215Z,101773.53
2024-04-30T05:49:34.659Z,101778.71
2024-04-30T05:52:05.081Z,101776.09
2024-04-30T05:54:35.306Z,101776.09
2024-04-30T05:57:05.574Z,101772.28
2024-04-30T05:59:35.483Z,101768.06
2024-04-30T06:02:05.586Z,101761.70
2024-04-30T06:04:35.870Z,101760.77
2024-04-30T06:07:06.134Z,101758.72
2024-04-30T06:09:37.220Z,101762.74
2024-04-30T06:12:09.046Z,101757.14
2024-04-30T06:14:39.520Z,101757.47
2024-04-30T06:17:10.427Z,101764.94
2024-04-30T06:19:40.814Z,101759.13
2024-04-30T06:22:11.625Z,101749.81
2024-04-30T06:24:42.153Z,101750.38
2024-04-30T06:27:13.938Z,101752.18
2024-04-30T06:29:44.187Z,101743.70
2024-04-30T06:32:17.021Z,101733.44
2024-04-30T06:34:47.247Z,101738.05
2024-04-30T06:37:17.444Z,101733.92
2024-04-30T06:39:52.314Z,101742.10
2024-04-30T06:42:22.220Z,101753.62
2024-04-30T06:44:52.319Z,101761.75
2024-04-30T06:47:31.284Z,101761.02
2024-04-30T06:50:03.059Z,101757.25
2024-04-30T06:52:35.021Z,101755.09
2024-04-30T06:55:05.574Z,101755.51
2024-04-30T06:57:35.690Z,101749.05
2024-04-30T07:00:11.466Z,101754.78
2024-04-30T07:02:43.611Z,101751.27
2024-04-30T07:05:13.086Z,101747.39
2024-04-30T07:07:45.223Z,101736.80
2024-04-30T07:10:15.204Z,101729.27
2024-04-30T07:12:45.411Z,101731.27
2024-04-30T07:15:15.270Z,101734.25
2024-04-30T07:17:47.228Z,101738.88
2024-04-30T07:20:17.277Z,101738.88
2024-04-30T07:22:47.459Z,101733.50
2024-04-30T07:25:19.050Z,101723.63
2024-04-30T07:27:53.783Z,101730.37
2024-04-30T07:30:23.718Z,101730.20
2024-04-30T07:32:53.975Z,101731.06
2024-04-30T07:35:23.997Z,101730.70
2024-04-30T07:37:54.118Z,101729.66
2024-04-30T07:40:23.893Z,101731.31
2024-04-30T07:42:54.037Z,101725.19
2024-04-30T07:45:23.926Z,101730.73
2024-04-30T07:47:54.134Z,101729.59
2024-04-30T07:50:24.129Z,101731.51
2024-04-30T07:52:53.872Z,101732.24
2024-04-30T07:55:23.586Z,101732.98
2024-04-30T07:57:53.411Z,101734.65
2024-04-30T08:00:23.245Z,101732.41
2024-04-30T08:02:53.155Z,101736.48
2024-04-30T08:05:24.007Z,101739.81
2024-04-30T08:07:53.958Z,101737.16
2024-04-30T08:10:23.589Z,101733.47
2024-04-30T08:12:53.759Z,101731.91
2024-04-30T08:15:25.519Z,101724.78
2024-04-30T08:17:55.523Z,101728.39
2024-04-30T08:20:27.082Z,101720.00
2024-04-30T08:22:57.565Z,101721.49
2024-04-30T08:25:27.478Z,101721.70
2024-04-30T08:27:57.412Z,101721.89
2024-04-30T08:30:27.792Z,101710.38
2024-04-30T08:33:00.040Z,101704.00
2024-04-30T08:35:29.911Z,101702.88
2024-04-30T08:38:01.420Z,101705.01
2024-04-30T08:40:31.336Z,101708.07
2024-04-30T08:43:01.405Z,101695.34
2024-04-30T08:45:33.510Z,101707.22
2024-04-30T08:48:06.086Z,101695.55
2024-04-30T08:50:38.436Z,101690.02
2024-04-30T08:53:10.546Z,101684.65
2024-04-30T08:55:43.014Z,101672.93
2024-04-30T08:58:13.180Z,101682.14
2024-04-30T09:00:44.847Z,101681.71
2024-04-30T09:03:15.849Z,101677.55
2024-04-30T09:05:46.674Z,101679.03
2024-04-30T09:08:17.072Z,101689.73
2024-04-30T09:10:48.085Z,101680.55
2024-04-30T09:13:19.780Z,101684.14
2024-04-30T09:16:01.993Z,101684.84
2024-04-30T09:18:33.438Z,101688.55
2024-04-30T09:21:16.172Z,101686.39
2024-04-30T09:23:35.691Z,101691.88
2024-04-30T09:26:08.442Z,101687.00
2024-04-30T09:28:38.501Z,101690.34
2024-04-30T09:31:10.062Z,101687.12
2024-04-30T09:33:40.232Z,101689.20
2024-04-30T09:36:13.600Z,101690.34
2024-04-30T09:38:44.726Z,101676.37
2024-04-30T09:41:15.151Z,101677.80
2024-04-30T09:43:45.410Z,101677.80
2024-04-30T09:46:17.988Z,101675.66
2024-04-30T09:48:50.005Z,101671.19
2024-04-30T09:51:22.567Z,101679.87
2024-04-30T09:53:55.374Z,101676.32
2024-04-30T09:56:26.759Z,101673.74
2024-04-30T09:58:57.231Z,101674.17
2024-04-30T10:01:30.191Z,101671.98
2024-04-30T10:04:02.965Z,101675.25
2024-04-30T10:06:33.622Z,101661.88
2024-04-30T10:09:04.451Z,101666.62
2024-04-30T10:11:34.480Z,101663.63
2024-04-30T10:14:04.399Z,101657.27
2024-04-30T10:16:34.398Z,101650.55
2024-04-30T10:19:05.780Z,101656.74
2024-04-30T10:21:36.922Z,101645.30
2024-04-30T10:24:24.037Z,101624.95
2024-04-30T10:26:53.969Z,101624.95
2024-04-30T10:29:24.128Z,101639.73
2024-04-30T10:31:57.088Z,101641.13
2024-04-30T10:34:25.714Z,101622.98
2024-04-30T10:36:55.426Z,101614.03
2024-04-30T10:39:26.814Z,101614.03
2024-04-30T10:41:56.994Z,101625.76
2024-04-30T10:44:26.800Z,101608.70
2024-04-30T10:46:59.397Z,101612.99
2024-04-30T10:49:29.507Z,101606.02
2024-04-30T10:51:59.495Z,101602.66
2024-04-30T10:54:30.338Z,101594.12
2024-04-30T10:57:00.447Z,101593.41
2024-04-30T10:59:30.792Z,101590.88
2024-04-30T11:02:01.002Z,101601.05
2024-04-30T11:04:32.436Z,101604.62
2024-04-30T11:07:03.175Z,101587.81
2024-04-30T11:09:40.809Z,101578.03
2024-04-30T11:12:11.811Z,101574.36
2024-04-30T11:14:45.714Z,101567.38
2024-04-30T11:17:20.422Z,101554.46
2024-04-30T11:19:50.166Z,101554.46
2024-04-30T11:22:21.410Z,101581.39
2024-04-30T11:24:51.476Z,101576.17
2024-04-30T11:27:21.387Z,101571.08
2024-04-30T11:29:51.318Z,101570.19
2024-04-30T11:32:21.127Z,101572.94
2024-04-30T11:34:53.029Z,101559.98
2024-04-30T11:37:23.078Z,101550.83
2024-04-30T11:39:53.093Z,101550.83
2024-04-30T11:42:30.570Z,101545.63
2024-04-30T11:44:56.296Z,101550.98
2024-04-30T11:47:26.328Z,101542.56
2024-04-30T11:49:56.327Z,101539.41
2024-04-30T11:52:26.218Z,101532.15
2024-04-30T11:54:56.098Z,101537.89
2024-04-30T11:57:26.001Z,101544.30
2024-04-30T11:59:58.654Z,101542.17
2024-04-30T12:02:28.590Z,101534.48
2024-04-30T12:04:58.651Z,101521.74
2024-04-30T12:07:28.734Z,101516.31
2024-04-30T12:10:00.322Z,101514.63
2024-04-30T12:12:30.012Z,101504.55
2024-04-30T12:14:59.862Z,101498.06
2024-04-30T12:17:29.892Z,101491.05
2024-04-30T12:19:59.942Z,101484.80
2024-04-30T12:22:30.103Z,101485.47
2024-04-30T12:25:00.496Z,101485.00
2024-04-30T12:27:30.404Z,101483.30
2024-04-30T12:30:00.073Z,101486.38
2024-04-30T12:32:30.125Z,101490.92
2024-04-30T12:34:59.984Z,101480.02
2024-04-30T12:37:30.231Z,101472.91
2024-04-30T12:40:00.855Z,101476.72
2024-04-30T12:42:31.583Z,101467.12
2024-04-30T12:45:01.533Z,101467.69
2024-04-30T12:47:31.501Z,101457.97
2024-04-30T12:50:01.599Z,101457.97
2024-04-30T12:52:31.587Z,101454.13
2024-04-30T12:55:01.512Z,101450.44
2024-04-30T12:57:31.509Z,101450.44
2024-04-30T13:00:01.474Z,101460.36
2024-04-30T13:02:31.180Z,101445.70
2024-04-30T13:05:01.433Z,101445.95
2024-04-30T13:07:32.380Z,101441.72
2024-04-30T13:10:02.332Z,101445.14
2024-04-30T13:12:33.200Z,101439.91
2024-04-30T13:15:03.383Z,101445.23
2024-04-30T13:17:33.584Z,101435.55
2024-04-30T13:20:03.518Z,101436.75
2024-04-30T13:22:33.581Z,101433.17
2024-04-30T13:25:03.861Z,101430.66
2024-04-30T13:27:34.704Z,101424.91
2024-04-30T13:30:05.809Z,101422.41
2024-04-30T13:32:36.194Z,101422.27
2024-04-30T13:35:07.758Z,101415.91
2024-04-30T13:37:39.791Z,101414.16
2024-04-30T13:40:11.182Z,101410.66
2024-04-30T13:42:41.048Z,101409.98
2024-04-30T13:45:10.990Z,101405.84
2024-04-30T13:47:40.833Z,101405.64
2024-04-30T13:50:11.822Z,101414.52
2024-04-30T13:52:42.374Z,101398.55
2024-04-30T13:55:12.301Z,101401.30
2024-04-30T13:57:44.829Z,101399.94
2024-04-30T14:00:15.867Z,101396.87
2024-04-30T14:02:48.464Z,101381.20
2024-04-30T14:05:19.073Z,101379.26
2024-04-30T14:07:48.963Z,101389.39
2024-04-30T14:10:19.537Z,101389.98
2024-04-30T14:12:49.683Z,101390.83
2024-04-30T14:15:19.352Z,101390.67
2024-04-30T14:17:49.620Z,101391.20
2024-04-30T14:20:19.313Z,101394.13
2024-04-30T14:22:49.354Z,101396.95
2024-04-30T14:25:19.536Z,101392.66
2024-04-30T14:27:49.465Z,101370.62
2024-04-30T14:30:19.060Z,101370.62
2024-04-30T14:32:48.982Z,101382.79
2024-04-30T14:35:19.303Z,101378.48
2024-04-30T14:37:49.350Z,101372.49
2024-04-30T14:40:19.440Z,101342.77
2024-04-30T14:42:49.331Z,101357.78
2024-04-30T14:45:18.949Z,101355.69
2024-04-30T14:47:48.815Z,101354.11
2024-04-30T14:50:18.914Z,101351.94
2024-04-30T14:52:49.123Z,101349.63
2024-04-30T14:55:18.779Z,101357.41
2024-04-30T14:57:48.725Z,101347.22
2024-04-30T15:00:18.843Z,101345.25
2024-04-30T15:02:48.814Z,101347.27
2024-04-30T15:05:18.782Z,101323.61
2024-04-30T15:07:48.672Z,101323.61
2024-04-30T15:10:18.413Z,101329.70
2024-04-30T15:12:48.350Z,101337.72
2024-04-30T15:15:18.269Z,101329.41
2024-04-30T15:17:47.982Z,101324.92
2024-04-30T15:20:17.946Z,101325.66
2024-04-30T15:22:47.812Z,101328.27
2024-04-30T15:25:17.779Z,101329.56
2024-04-30T15:27:49.340Z,101329.43
2024-04-30T15:30:19.256Z,101318.33
2024-04-30T15:32:50.966Z,101316.47
2024-04-30T15:35:22.222Z,101311.02
2024-04-30T15:37:52.145Z,101312.00
2024-04-30T15:40:22.017Z,101310.03
2024-04-30T15:42:51.947Z,101305.27
2024-04-30T15:45:21.788Z,101306.20
2024-04-30T15:47:51.707Z,101302.38
2024-04-30T15:50:21.549Z,101305.70
2024-04-30T15:52:51.534Z,101301.36
2024-04-30T15:55:22.185Z,101300.36
2024-04-30T15:57:52.034Z,101277.63
2024-04-30T16:00:21.693Z,101277.63
2024-04-30T16:02:51.637Z,101285.03
2024-04-30T16:05:22.859Z,101286.97
2024-04-30T16:07:54.121Z,101282.64
2024-04-30T16:10:24.646Z,101272.98
2024-04-30T16:12:54.483Z,101272.98
2024-04-30T16:15:24.389Z,101283.34
2024-04-30T16:17:54.794Z,101295.58
2024-04-30T16:20:25.039Z,101279.69
2024-04-30T16:22:55.051Z,101280.66
2024-04-30T16:25:24.640Z,101276.80
2024-04-30T16:27:54.626Z,101270.21
2024-04-30T16:30:24.530Z,101264.41
2024-04-30T16:32:54.938Z,101266.81
2024-04-30T16:35:24.789Z,101267.60
2024-04-30T16:37:55.043Z,101264.41
2024-04-30T16:40:24.891Z,101264.41
2024-04-30T16:42:55.867Z,101260.50
2024-04-30T16:45:25.676Z,101267.27
2024-04-30T16:47:55.718Z,101264.03
2024-04-30T16:50:25.791Z,101265.45
2024-04-30T16:52:57.796Z,101254.06
2024-04-30T16:55:29.231Z,101257.27
2024-04-30T16:58:04.046Z,101260.25
2024-04-30T17:00:34.295Z,101246.89
2024-04-30T17:03:04.674Z,101243.77
2024-04-30T17:05:35.127Z,101233.53
2024-04-30T17:08:07.646Z,101240.91
2024-04-30T17:10:39.358Z,101234.23
2024-04-30T17:13:09.856Z,101234.73
2024-04-30T17:15:41.482Z,101236.33
2024-04-30T17:18:13.626Z,101233.02
2024-04-30T17:20:44.616Z,101226.31
2024-04-30T17:23:14.662Z,101229.42
2024-04-30T17:25:44.646Z,101227.91
2024-04-30T17:28:16.374Z,101229.95
2024-04-30T17:30:46.368Z,101230.02
2024-04-30T17:33:16.540Z,101228.34
2024-04-30T17:35:46.467Z,101225.86
2024-04-30T17:38:16.979Z,101228.34
2024-04-30T17:40:46.907Z,101221.62
2024-04-30T17:43:16.779Z,101222.41
2024-04-30T17:45:46.742Z,101222.30
2024-04-30T17:48:16.580Z,101218.97
2024-04-30T17:50:46.647Z,101213.81
2024-04-30T17:53:17.437Z,101220.70
2024-04-30T17:55:47.837Z,101214.20
2024-04-30T17:58:20.227Z,101222.99
2024-04-30T18:00:49.489Z,101226.61
2024-04-30T18:03:19.527Z,101227.80
2024-04-30T18:05:51.101Z,101221.44
2024-04-30T18:08:20.996Z,101226.30
2024-04-30T18:10:54.170Z,101215.17
2024-04-30T18:13:22.595Z,101218.84
2024-04-30T18:15:52.550Z,101218.84
2024-04-30T18:18:24.383Z,101237.96
2024-04-30T18:20:54.405Z,101219.30
2024-04-30T18:23:24.392Z,101219.30
2024-04-30T18:25:54.680Z,101233.94
2024-04-30T18:28:24.478Z,101234.66
2024-04-30T18:30:54.794Z,101237.41
2024-04-30T18:33:25.186Z,101224.13
2024-04-30T18:35:55.225Z,101220.56
2024-04-30T18:38:24.828Z,101220.56
2024-04-30T18:40:55.674Z,101243.98
2024-04-30T18:43:25.967Z,101231.72
2024-04-30T18:45:56.107Z,101233.04
2024-04-30T18:48:28.180Z,101237.44
2024-04-30T18:50:58.346Z,101233.67
2024-04-30T18:53:28.571Z,101241.80
2024-04-30T18:55:59.860Z,101236.56
2024-04-30T18:58:29.879Z,101229.30
2024-04-30T19:01:01.177Z,101229.35
2024-04-30T19:03:31.251Z,101234.19
2024-04-30T19:06:01.873Z,101229.25
2024-04-30T19:08:38.369Z,101230.09
2024-04-30T19:11:09.549Z,101227.56
2024-04-30T19:13:40.219Z,101228.16
2024-04-30T19:16:11.170Z,101222.63
2024-04-30T19:18:43.006Z,101219.58
2024-04-30T19:21:13.799Z,101221.26
2024-04-30T19:23:43.795Z,101220.16
2024-04-30T19:26:19.796Z,101210.71
2024-04-30T19:28:49.930Z,101215.19
2024-04-30T19:31:21.631Z,101212.67
2024-04-30T19:33:51.788Z,101217.97
2024-04-30T19:36:23.622Z,101217.97
2024-04-30T19:38:55.602Z,101227.16
2024-04-30T19:41:26.297Z,101228.27
2024-04-30T19:43:56.558Z,101233.00
2024-04-30T19:46:26.860Z,101232.41
2024-04-30T19:48:57.831Z,101230.42
2024-04-30T19:51:28.262Z,101227.63
2024-04-30T19:53:58.741Z,101235.14
2024-04-30T19:56:28.790Z,101236.22
2024-04-30T19:59:08.325Z,101233.98
2024-04-30T20:01:40.878Z,101236.45
2024-04-30T20:04:11.810Z,101229.99
2024-04-30T20:06:45.249Z,101232.49
2024-04-30T20:09:17.357Z,101225.79
2024-04-30T20:11:47.538Z,101229.64
2024-04-30T20:14:17.369Z,101202.94
2024-04-30T20:16:47.484Z,101202.94
2024-04-30T20:19:17.855Z,101223.73
2024-04-30T20:21:53.462Z,101224.75
2024-04-30T20:24:23.506Z,101230.10
2024-04-30T20:26:55.837Z,101226.05
2024-04-30T20:29:28.408Z,101227.34
2024-04-30T20:31:58.877Z,101226.06
2024-04-30T20:34:33.516Z,101225.89
2024-04-30T20:37:04.061Z,101218.67
2024-04-30T20:39:37.060Z,101221.30
2024-04-30T20:42:13.511Z,101210.64
2024-04-30T20:44:43.505Z,101211.14
2024-04-30T20:47:20.988Z,101205.81
2024-04-30T20:49:57.334Z,101207.08
2024-04-30T20:52:27.547Z,101206.52
2024-04-30T20:54:58.085Z,101206.58
2024-04-30T20:57:28.056Z,101204.92
2024-04-30T20:59:58.000Z,101203.59
2024-04-30T21:02:28.292Z,101177.50
2024-04-30T21:04:58.485Z,101177.50
2024-04-30T21:07:28.967Z,101197.82
2024-04-30T21:09:59.378Z,101192.77
2024-04-30T21:12:29.844Z,101194.38
2024-04-30T21:15:00.196Z,101191.05
2024-04-30T21:17:30.474Z,101186.39
2024-04-30T21:20:04.269Z,101186.44
2024-04-30T21:22:34.467Z,101183.57
2024-04-30T21:25:04.695Z,101178.28
2024-04-30T21:27:34.723Z,101172.78
2024-04-30T21:30:07.475Z,101170.92
2024-04-30T21:32:37.947Z,101171.14
2024-04-30T21:35:10.238Z,101171.36
2024-04-30T21:37:46.983Z,101175.08
2024-04-30T21:40:17.504Z,101178.98
2024-04-30T21:42:47.659Z,101177.86
2024-04-30T21:45:17.771Z,101174.89
2024-04-30T21:47:48.298Z,101174.07
2024-04-30T21:50:19.624Z,101178.50
2024-04-30T21:52:49.664Z,101170.46
2024-04-30T21:55:19.758Z,101167.98
2024-04-30T21:57:51.656Z,101170.75
2024-04-30T22:00:22.103Z,101171.65
2024-04-30T22:02:57.464Z,101184.03
2024-04-30T22:05:23.668Z,101186.20
2024-04-30T22:07:54.097Z,101176.97
2024-04-30T22:10:26.663Z,101177.66
2024-04-30T22:12:59.557Z,101176.95
2024-04-30T22:15:29.730Z,101179.73
2024-04-30T22:18:00.332Z,101149.88
2024-04-30T22:20:34.256Z,101149.88
2024-04-30T22:23:04.920Z,101165.54
2024-04-30T22:25:34.919Z,101160.76
2024-04-30T22:28:06.618Z,101157.48
2024-04-30T22:30:41.008Z,101155.09
2024-04-30T22:33:11.419Z,101143.93
2024-04-30T22:35:41.453Z,101148.27
2024-04-30T22:38:11.623Z,101142.25
2024-04-30T22:40:41.702Z,101143.37
2024-04-30T22:43:11.531Z,101133.44
2024-04-30T22:45:41.770Z,101139.34
2024-04-30T22:48:12.202Z,101137.95
2024-04-30T22:50:42.293Z,101137.34
2024-04-30T22:53:12.379Z,101135.81
2024-04-30T22:55:42.990Z,101129.23
2024-04-30T22:58:13.435Z,101131.23
2024-04-30T23:00:43.462Z,101130.18
2024-04-30T23:03:13.970Z,101128.13
2024-04-30T23:05:43.937Z,101129.22
2024-04-30T23:08:13.948Z,101129.22
2024-04-30T23:10:43.922Z,101127.28
2024-04-30T23:13:13.877Z,101106.17
2024-04-30T23:15:43.989Z,101106.17
2024-04-30T23:18:14.210Z,101125.06
2024-04-30T23:20:44.287Z,101116.14
2024-04-30T23:23:14.186Z,101115.63
2024-04-30T23:25:44.062Z,101115.63
2024-04-30T23:28:14.064Z,101109.47
2024-04-30T23:30:44.121Z,101115.21
2024-04-30T23:33:14.201Z,101107.46
2024-04-30T23:35:44.138Z,101111.75
2024-04-30T23:38:14.115Z,101103.17
2024-04-30T23:40:44.185Z,101108.22
2024-04-30T23:43:14.224Z,101099.00
2024-04-30T23:45:44.381Z,101097.02
2024-04-30T23:48:14.513Z,101096.25
2024-04-30T23:50:45.011Z,101093.69
2024-04-30T23:53:14.941Z,101087.44
2024-04-30T23:55:44.919Z,101089.53
2024-04-30T23:58:15.022Z,101084.33
